createdAt,value
2019-05-25T00:00:09.015Z,11.50
2019-05-25T00:02:37.517Z,11.50
2019-05-25T00:05:07.093Z,11.50
2019-05-25T00:07:35.506Z,11.40
2019-05-25T00:10:06.244Z,11.30
2019-05-25T00:12:34.694Z,11.30
2019-05-25T00:15:03.948Z,11.10
2019-05-25T00:17:32.372Z,11.00
2019-05-25T00:20:00.810Z,11.00
2019-05-25T00:22:29.238Z,10.90
2019-05-25T00:24:57.651Z,10.90
2019-05-25T00:27:26.111Z,10.90
2019-05-25T00:29:54.526Z,10.90
2019-05-25T00:32:23.000Z,10.90
2019-05-25T00:34:51.402Z,10.90
2019-05-25T00:37:19.833Z,10.80
2019-05-25T00:39:48.262Z,10.80
2019-05-25T00:42:16.722Z,10.80
2019-05-25T00:44:45.153Z,10.60
2019-05-25T00:47:13.707Z,10.50
2019-05-25T00:49:42.167Z,10.50
2019-05-25T00:52:10.578Z,10.50
2019-05-25T00:54:38.994Z,10.50
2019-05-25T00:57:07.474Z,10.60
2019-05-25T00:59:36.570Z,10.70
2019-05-25T01:02:05.058Z,10.70
2019-05-25T01:04:33.530Z,10.60
2019-05-25T01:07:01.957Z,10.60
2019-05-25T01:09:30.369Z,10.60
2019-05-25T01:11:58.803Z,10.60
2019-05-25T01:14:27.227Z,10.60
2019-05-25T01:16:55.644Z,10.60
2019-05-25T01:19:24.107Z,10.70
2019-05-25T01:21:52.878Z,10.70
2019-05-25T01:24:21.305Z,10.70
2019-05-25T01:26:49.758Z,10.70
2019-05-25T01:29:18.170Z,10.60
2019-05-25T01:31:46.666Z,10.60
2019-05-25T01:34:15.105Z,10.60
2019-05-25T01:36:43.512Z,10.60
2019-05-25T01:39:11.934Z,10.50
2019-05-25T01:41:40.384Z,10.40
2019-05-25T01:44:08.796Z,10.30
2019-05-25T01:46:37.225Z,10.20
2019-05-25T01:49:05.693Z,10.10
2019-05-25T01:51:34.117Z,10.10
2019-05-25T01:54:02.539Z,10.10
2019-05-25T01:56:30.998Z,10.10
2019-05-25T01:58:59.417Z,10.10
2019-05-25T02:01:27.844Z,10.00
2019-05-25T02:03:56.278Z,9.90
2019-05-25T02:06:24.702Z,9.90
2019-05-25T02:08:53.100Z,9.90
2019-05-25T02:11:21.542Z,9.90
2019-05-25T02:13:50.034Z,9.90
2019-05-25T02:16:18.492Z,9.80
2019-05-25T02:18:46.938Z,9.80
2019-05-25T02:21:15.354Z,9.80
2019-05-25T02:23:43.841Z,9.70
2019-05-25T02:26:12.293Z,9.70
2019-05-25T02:28:40.706Z,9.60
2019-05-25T02:31:09.116Z,9.50
2019-05-25T02:33:37.564Z,9.40
2019-05-25T02:36:06.244Z,9.40
2019-05-25T02:38:34.682Z,9.40
2019-05-25T02:41:03.163Z,9.40
2019-05-25T02:43:31.526Z,9.30
2019-05-25T02:45:59.953Z,9.20
2019-05-25T02:48:28.393Z,9.10
2019-05-25T02:50:56.819Z,9.10
2019-05-25T02:53:25.237Z,9.10
2019-05-25T02:55:53.679Z,9.20
2019-05-25T02:58:22.365Z,9.20
2019-05-25T03:00:50.782Z,9.20
2019-05-25T03:03:19.498Z,9.20
2019-05-25T03:05:48.335Z,9.20
2019-05-25T03:08:17.020Z,9.30
2019-05-25T03:10:45.734Z,9.30
2019-05-25T03:13:14.154Z,9.30
2019-05-25T03:15:42.841Z,9.30
2019-05-25T03:18:11.547Z,9.20
2019-05-25T03:20:40.232Z,9.10
2019-05-25T03:23:08.939Z,8.80
2019-05-25T03:25:49.163Z,8.60
2019-05-25T03:28:07.989Z,8.60
2019-05-25T03:30:38.985Z,8.60
2019-05-25T03:33:07.698Z,8.60
2019-05-25T03:35:36.403Z,8.70
2019-05-25T03:38:05.102Z,8.80
2019-05-25T03:40:33.825Z,8.90
2019-05-25T03:43:02.521Z,8.80
2019-05-25T03:45:31.211Z,8.80
2019-05-25T03:48:00.773Z,8.80
2019-05-25T03:50:29.460Z,8.80
2019-05-25T03:52:58.141Z,8.90
2019-05-25T03:55:27.002Z,9.00
2019-05-25T03:57:55.682Z,9.00
2019-05-25T04:00:30.502Z,8.90
2019-05-25T04:02:59.212Z,9.00
2019-05-25T04:05:27.641Z,10.00
2019-05-25T04:07:56.073Z,11.10
2019-05-25T04:10:24.531Z,11.90
2019-05-25T04:12:52.940Z,12.70
2019-05-25T04:15:21.358Z,13.30
2019-05-25T04:17:49.811Z,13.90
2019-05-25T04:20:18.241Z,13.90
2019-05-25T04:22:46.670Z,14.20
2019-05-25T04:25:15.110Z,14.70
2019-05-25T04:27:43.555Z,14.90
2019-05-25T04:30:12.018Z,15.70
2019-05-25T04:32:40.470Z,16.70
2019-05-25T04:35:08.875Z,17.70
2019-05-25T04:37:37.296Z,18.70
2019-05-25T04:40:09.057Z,19.60
2019-05-25T04:42:37.472Z,20.30
2019-05-25T04:45:06.538Z,21.10
2019-05-25T04:47:34.988Z,22.00
2019-05-25T04:50:04.489Z,22.70
2019-05-25T04:52:32.907Z,23.50
2019-05-25T04:55:01.378Z,24.20
2019-05-25T04:57:29.800Z,24.90
2019-05-25T04:59:58.401Z,25.60
2019-05-25T05:02:26.842Z,26.10
2019-05-25T05:04:55.259Z,26.60
2019-05-25T05:07:23.683Z,26.90
2019-05-25T05:10:02.266Z,27.40
2019-05-25T05:12:22.579Z,27.60
2019-05-25T05:14:51.018Z,27.80
2019-05-25T05:17:19.453Z,28.10
2019-05-25T05:19:47.881Z,28.30
2019-05-25T05:22:17.284Z,28.60
2019-05-25T05:24:45.713Z,29.20
2019-05-25T05:27:14.152Z,29.80
2019-05-25T05:29:42.554Z,30.40
2019-05-25T05:32:24.795Z,31.00
2019-05-25T05:34:41.080Z,31.00
2019-05-25T05:37:09.492Z,31.20
2019-05-25T05:39:37.941Z,31.20
2019-05-25T05:42:06.353Z,31.10
2019-05-25T05:44:34.777Z,30.80
2019-05-25T05:47:03.237Z,30.80
2019-05-25T05:49:31.648Z,30.60
2019-05-25T05:52:02.148Z,29.70
2019-05-25T05:54:30.877Z,28.30
2019-05-25T05:57:11.853Z,26.90
2019-05-25T05:59:29.448Z,25.70
2019-05-25T06:01:57.904Z,24.20
2019-05-25T06:04:26.320Z,23.10
2019-05-25T06:06:54.748Z,22.30
2019-05-25T06:09:23.193Z,21.60
2019-05-25T06:11:51.616Z,21.10
2019-05-25T06:14:20.036Z,20.80
2019-05-25T06:16:48.480Z,20.30
2019-05-25T06:19:16.907Z,20.00
2019-05-25T06:21:45.333Z,19.80
2019-05-25T06:24:13.781Z,19.60
2019-05-25T06:26:42.587Z,19.40
2019-05-25T06:29:10.996Z,19.30
2019-05-25T06:31:39.451Z,19.30
2019-05-25T06:34:07.859Z,19.20
2019-05-25T06:36:36.596Z,19.20
2019-05-25T06:39:07.283Z,19.20
2019-05-25T06:41:35.701Z,19.10
2019-05-25T06:44:05.240Z,19.00
2019-05-25T06:46:33.691Z,19.00
2019-05-25T06:49:02.108Z,19.10
2019-05-25T06:51:30.523Z,19.20
2019-05-25T06:53:58.979Z,19.20
2019-05-25T06:56:27.396Z,19.20
2019-05-25T06:58:55.810Z,19.20
2019-05-25T07:01:24.249Z,19.20
2019-05-25T07:03:52.661Z,19.30
2019-05-25T07:06:21.078Z,19.50
2019-05-25T07:08:50.003Z,19.70
2019-05-25T07:11:18.441Z,19.60
2019-05-25T07:13:46.866Z,19.60
2019-05-25T07:16:15.319Z,19.50
2019-05-25T07:18:43.739Z,19.60
2019-05-25T07:21:12.165Z,19.70
2019-05-25T07:23:40.610Z,19.60
2019-05-25T07:26:09.034Z,19.80
2019-05-25T07:28:37.443Z,20.00
2019-05-25T07:31:05.906Z,20.10
2019-05-25T07:33:34.315Z,20.10
2019-05-25T07:36:07.343Z,20.20
2019-05-25T07:38:33.714Z,20.40
2019-05-25T07:41:02.131Z,20.50
2019-05-25T07:43:30.557Z,20.70
2019-05-25T07:45:58.995Z,20.80
2019-05-25T07:48:27.427Z,20.80
2019-05-25T07:50:55.862Z,20.90
2019-05-25T07:53:24.301Z,21.00
2019-05-25T07:55:52.720Z,21.00
2019-05-25T07:58:21.138Z,20.90
2019-05-25T08:00:49.595Z,21.20
2019-05-25T08:03:18.016Z,21.40
2019-05-25T08:05:46.436Z,21.50
2019-05-25T08:08:14.880Z,21.60
2019-05-25T08:10:43.307Z,21.70
2019-05-25T08:13:11.720Z,21.80
2019-05-25T08:15:40.163Z,21.90
2019-05-25T08:18:08.586Z,22.00
2019-05-25T08:20:37.003Z,22.10
2019-05-25T08:23:05.443Z,22.20
2019-05-25T08:25:33.850Z,22.30
2019-05-25T08:28:02.260Z,22.40
2019-05-25T08:30:30.722Z,22.50
2019-05-25T08:32:59.148Z,22.60
2019-05-25T08:35:28.144Z,22.70
2019-05-25T08:37:56.605Z,22.80
2019-05-25T08:40:25.023Z,22.80
2019-05-25T08:42:53.448Z,22.90
2019-05-25T08:45:21.883Z,23.00
2019-05-25T08:47:50.322Z,23.20
2019-05-25T08:50:18.739Z,23.20
2019-05-25T08:52:47.185Z,23.30
2019-05-25T08:55:15.595Z,23.30
2019-05-25T08:57:44.011Z,23.40
2019-05-25T09:00:13.608Z,23.40
2019-05-25T09:02:42.028Z,23.50
2019-05-25T09:05:10.437Z,23.60
2019-05-25T09:07:38.880Z,23.80
2019-05-25T09:10:07.367Z,23.70
2019-05-25T09:12:35.810Z,23.80
2019-05-25T09:15:06.086Z,23.90
2019-05-25T09:17:34.680Z,24.00
2019-05-25T09:20:04.545Z,24.20
2019-05-25T09:22:33.008Z,24.30
2019-05-25T09:25:01.435Z,24.40
2019-05-25T09:27:29.935Z,24.50
2019-05-25T09:29:58.380Z,24.60
2019-05-25T09:32:26.828Z,24.70
2019-05-25T09:34:55.273Z,24.80
2019-05-25T09:37:23.717Z,24.90
2019-05-25T09:39:52.131Z,24.90
2019-05-25T09:42:20.546Z,25.00
2019-05-25T09:44:49.010Z,25.10
2019-05-25T09:47:17.420Z,25.10
2019-05-25T09:49:45.858Z,25.20
2019-05-25T09:52:14.312Z,25.20
2019-05-25T09:54:42.730Z,25.30
2019-05-25T09:57:11.144Z,25.40
2019-05-25T09:59:39.598Z,25.50
2019-05-25T10:02:08.338Z,25.60
2019-05-25T10:04:36.754Z,25.70
2019-05-25T10:07:05.226Z,25.60
2019-05-25T10:09:33.635Z,25.50
2019-05-25T10:12:02.132Z,25.40
2019-05-25T10:14:30.577Z,25.60
2019-05-25T10:16:58.990Z,25.80
2019-05-25T10:19:27.423Z,25.80
2019-05-25T10:21:59.249Z,25.90
2019-05-25T10:24:25.912Z,25.90
2019-05-25T10:26:54.320Z,26.00
2019-05-25T10:29:35.967Z,26.00
2019-05-25T10:31:52.847Z,26.20
2019-05-25T10:34:21.275Z,26.20
2019-05-25T10:36:49.720Z,26.20
2019-05-25T10:39:19.651Z,26.30
2019-05-25T10:41:48.070Z,26.40
2019-05-25T10:44:16.521Z,26.30
2019-05-25T10:46:44.945Z,26.40
2019-05-25T10:49:13.356Z,26.40
2019-05-25T10:51:41.803Z,26.30
2019-05-25T10:54:10.552Z,26.20
2019-05-25T10:56:39.013Z,26.00
2019-05-25T10:59:07.439Z,25.70
2019-05-25T11:01:35.853Z,25.60
2019-05-25T11:04:04.340Z,25.60
2019-05-25T11:06:34.804Z,25.70
2019-05-25T11:09:03.048Z,25.90
2019-05-25T11:11:31.464Z,26.00
2019-05-25T11:13:59.916Z,26.00
2019-05-25T11:16:28.340Z,25.90
2019-05-25T11:18:56.750Z,25.70
2019-05-25T11:21:25.195Z,25.60
2019-05-25T11:23:53.607Z,25.70
2019-05-25T11:26:22.027Z,25.70
2019-05-25T11:28:50.464Z,25.70
2019-05-25T11:31:18.895Z,25.70
2019-05-25T11:33:47.312Z,25.60
2019-05-25T11:36:15.770Z,25.40
2019-05-25T11:38:44.241Z,25.20
2019-05-25T11:41:12.663Z,25.10
2019-05-25T11:43:41.137Z,25.10
2019-05-25T11:46:09.554Z,24.90
2019-05-25T11:48:37.971Z,24.90
2019-05-25T11:51:06.416Z,25.00
2019-05-25T11:53:34.832Z,25.30
2019-05-25T11:56:03.260Z,25.50
2019-05-25T11:58:44.870Z,25.50
2019-05-25T12:01:01.777Z,25.50
2019-05-25T12:03:30.188Z,25.70
2019-05-25T12:05:58.634Z,25.70
2019-05-25T12:08:27.036Z,25.60
2019-05-25T12:10:55.450Z,25.20
2019-05-25T12:13:23.884Z,25.10
2019-05-25T12:15:52.320Z,25.30
2019-05-25T12:18:20.750Z,25.20
2019-05-25T12:20:49.201Z,25.20
2019-05-25T12:23:17.623Z,25.20
2019-05-25T12:25:46.040Z,25.30
2019-05-25T12:28:14.500Z,25.50
2019-05-25T12:30:42.922Z,25.40
2019-05-25T12:33:11.335Z,25.00
2019-05-25T12:35:40.665Z,24.60
2019-05-25T12:38:09.161Z,24.80
2019-05-25T12:40:52.489Z,24.90
2019-05-25T12:43:07.689Z,25.10
2019-05-25T12:45:36.114Z,25.20
2019-05-25T12:48:04.568Z,25.20
2019-05-25T12:50:33.015Z,25.10
2019-05-25T12:53:01.460Z,25.10
2019-05-25T12:55:29.867Z,25.00
2019-05-25T12:57:58.312Z,25.00
2019-05-25T13:00:26.731Z,24.90
2019-05-25T13:02:55.145Z,24.80
2019-05-25T13:05:33.578Z,24.70
2019-05-25T13:07:54.548Z,24.50
2019-05-25T13:10:22.974Z,24.00
2019-05-25T13:12:51.419Z,23.90
2019-05-25T13:15:19.847Z,23.80
2019-05-25T13:17:48.312Z,23.80
2019-05-25T13:20:16.730Z,23.70
2019-05-25T13:22:45.145Z,23.40
2019-05-25T13:25:13.576Z,23.10
2019-05-25T13:27:42.036Z,22.70
2019-05-25T13:30:10.452Z,22.40
2019-05-25T13:32:38.887Z,22.00
2019-05-25T13:35:07.591Z,21.80
2019-05-25T13:37:36.023Z,21.50
2019-05-25T13:40:08.040Z,21.20
2019-05-25T13:42:36.496Z,20.90
2019-05-25T13:45:08.090Z,20.50
2019-05-25T13:47:36.591Z,20.30
2019-05-25T13:50:08.433Z,20.00
2019-05-25T13:52:36.839Z,19.90
2019-05-25T13:55:09.875Z,19.80
2019-05-25T13:57:38.553Z,19.80
2019-05-25T14:00:08.881Z,19.80
2019-05-25T14:02:37.305Z,19.80
2019-05-25T14:05:06.391Z,19.60
2019-05-25T14:07:34.814Z,19.40
2019-05-25T14:10:04.647Z,19.10
2019-05-25T14:12:33.078Z,18.90
2019-05-25T14:15:01.782Z,18.90
2019-05-25T14:17:30.203Z,18.80
2019-05-25T14:19:58.656Z,18.80
2019-05-25T14:22:27.083Z,18.80
2019-05-25T14:24:55.535Z,18.80
2019-05-25T14:27:24.351Z,18.90
2019-05-25T14:29:52.766Z,18.70
2019-05-25T14:32:21.179Z,18.60
2019-05-25T14:34:49.625Z,18.60
2019-05-25T14:37:18.055Z,18.60
2019-05-25T14:39:46.463Z,18.50
2019-05-25T14:42:14.940Z,18.50
2019-05-25T14:44:43.365Z,18.50
2019-05-25T14:47:12.105Z,18.40
2019-05-25T14:49:40.564Z,18.40
2019-05-25T14:52:08.971Z,18.40
2019-05-25T14:54:37.383Z,18.30
2019-05-25T14:57:05.839Z,18.30
2019-05-25T14:59:34.255Z,18.30
2019-05-25T15:02:03.805Z,18.20
2019-05-25T15:04:32.489Z,18.20
2019-05-25T15:07:00.885Z,18.20
2019-05-25T15:09:29.275Z,18.20
2019-05-25T15:11:57.710Z,18.20
2019-05-25T15:14:26.135Z,18.10
2019-05-25T15:16:54.600Z,18.10
2019-05-25T15:19:23.020Z,18.10
2019-05-25T15:21:51.598Z,18.00
2019-05-25T15:24:20.095Z,18.00
2019-05-25T15:26:48.538Z,18.00
2019-05-25T15:29:16.946Z,18.00
2019-05-25T15:31:45.359Z,18.00
2019-05-25T15:34:13.799Z,18.00
2019-05-25T15:36:42.231Z,18.00
2019-05-25T15:39:10.642Z,18.00
2019-05-25T15:41:39.113Z,18.00
2019-05-25T15:44:07.531Z,18.00
2019-05-25T15:46:35.942Z,18.00
2019-05-25T15:49:04.466Z,18.00
2019-05-25T15:51:32.943Z,17.90
2019-05-25T15:54:01.305Z,17.90
2019-05-25T15:56:29.741Z,17.90
2019-05-25T15:58:58.171Z,17.90
2019-05-25T16:01:26.659Z,17.90
2019-05-25T16:03:55.183Z,17.90
2019-05-25T16:06:24.036Z,17.90
2019-05-25T16:08:52.507Z,17.80
2019-05-25T16:11:21.043Z,17.80
2019-05-25T16:13:49.483Z,17.80
2019-05-25T16:16:17.894Z,17.80
2019-05-25T16:18:46.341Z,17.70
2019-05-25T16:21:14.762Z,17.70
2019-05-25T16:23:43.175Z,17.60
2019-05-25T16:26:11.627Z,17.70
2019-05-25T16:28:40.050Z,17.60
2019-05-25T16:31:08.456Z,17.60
2019-05-25T16:33:36.913Z,17.60
2019-05-25T16:36:05.337Z,17.60
2019-05-25T16:38:33.751Z,17.60
2019-05-25T16:41:02.577Z,17.60
2019-05-25T16:43:30.991Z,17.60
2019-05-25T16:45:59.416Z,17.70
2019-05-25T16:48:27.851Z,17.70
2019-05-25T16:50:56.299Z,17.60
2019-05-25T16:53:24.710Z,17.70
2019-05-25T16:55:54.813Z,17.60
2019-05-25T16:58:24.839Z,17.70
2019-05-25T17:00:53.255Z,17.60
2019-05-25T17:03:28.327Z,17.60
2019-05-25T17:05:51.767Z,17.60
2019-05-25T17:08:20.257Z,17.70
2019-05-25T17:10:48.718Z,17.70
2019-05-25T17:13:17.161Z,17.70
2019-05-25T17:15:45.585Z,17.70
2019-05-25T17:18:14.015Z,17.80
2019-05-25T17:20:42.502Z,17.80
2019-05-25T17:23:10.928Z,17.70
2019-05-25T17:25:39.407Z,17.70
2019-05-25T17:28:07.830Z,17.70
2019-05-25T17:30:39.551Z,17.60
2019-05-25T17:33:08.006Z,17.50
2019-05-25T17:35:36.425Z,17.50
2019-05-25T17:38:04.841Z,17.40
2019-05-25T17:40:33.295Z,17.40
2019-05-25T17:43:01.694Z,17.40
2019-05-25T17:45:30.114Z,17.40
2019-05-25T17:47:58.567Z,17.40
2019-05-25T17:50:26.977Z,17.40
2019-05-25T17:52:55.390Z,17.40
2019-05-25T17:55:23.826Z,17.40
2019-05-25T17:57:52.267Z,17.40
2019-05-25T18:00:45.582Z,17.30
2019-05-25T18:03:13.982Z,17.30
2019-05-25T18:05:42.415Z,17.20
2019-05-25T18:08:10.868Z,17.20
2019-05-25T18:10:52.165Z,17.20
2019-05-25T18:13:09.353Z,17.20
2019-05-25T18:15:37.811Z,17.10
2019-05-25T18:18:06.986Z,17.10
2019-05-25T18:20:35.478Z,17.00
2019-05-25T18:23:03.951Z,17.00
2019-05-25T18:25:32.358Z,17.00
2019-05-25T18:28:00.811Z,17.00
2019-05-25T18:30:29.417Z,16.90
2019-05-25T18:32:58.066Z,16.90
2019-05-25T18:35:26.543Z,16.90
2019-05-25T18:37:55.006Z,16.90
2019-05-25T18:40:23.410Z,16.80
2019-05-25T18:42:51.847Z,16.80
2019-05-25T18:45:20.355Z,16.80
2019-05-25T18:47:48.957Z,16.70
2019-05-25T18:50:17.625Z,16.70
2019-05-25T18:52:46.263Z,16.70
2019-05-25T18:55:14.914Z,16.70
2019-05-25T18:57:43.326Z,16.60
2019-05-25T19:00:13.178Z,16.60
2019-05-25T19:02:41.595Z,16.60
2019-05-25T19:05:10.027Z,16.50
2019-05-25T19:07:38.503Z,16.50
2019-05-25T19:10:09.902Z,16.40
2019-05-25T19:12:38.327Z,16.40
2019-05-25T19:15:08.847Z,16.40
2019-05-25T19:17:37.263Z,16.30
2019-05-25T19:20:06.109Z,16.30
2019-05-25T19:22:34.570Z,16.40
2019-05-25T19:25:02.994Z,16.30
2019-05-25T19:27:31.559Z,16.30
2019-05-25T19:30:00.003Z,16.20
2019-05-25T19:32:28.434Z,16.20
2019-05-25T19:34:59.923Z,16.20
2019-05-25T19:37:26.964Z,16.20
2019-05-25T19:39:55.454Z,16.10
2019-05-25T19:42:23.891Z,16.00
2019-05-25T19:44:52.330Z,16.00
2019-05-25T19:47:20.755Z,15.90
2019-05-25T19:49:49.189Z,15.90
2019-05-25T19:52:17.632Z,15.90
2019-05-25T19:54:46.058Z,15.80
2019-05-25T19:57:14.472Z,15.80
2019-05-25T19:59:42.917Z,15.80
2019-05-25T20:02:11.326Z,15.80
2019-05-25T20:04:40.206Z,15.80
2019-05-25T20:07:08.668Z,15.80
2019-05-25T20:09:37.105Z,15.80
2019-05-25T20:12:05.526Z,15.80
2019-05-25T20:14:33.983Z,15.70
2019-05-25T20:17:02.421Z,15.70
2019-05-25T20:19:30.855Z,15.70
2019-05-25T20:21:59.290Z,15.70
2019-05-25T20:24:27.722Z,15.70
2019-05-25T20:26:56.146Z,15.60
2019-05-25T20:29:24.610Z,15.60
2019-05-25T20:31:53.030Z,15.50
2019-05-25T20:34:21.454Z,15.50
2019-05-25T20:36:49.885Z,15.50
2019-05-25T20:39:18.332Z,15.50
2019-05-25T20:41:46.734Z,15.50
2019-05-25T20:44:15.179Z,15.40
2019-05-25T20:46:43.590Z,15.50
2019-05-25T20:49:12.005Z,15.50
2019-05-25T20:51:40.459Z,15.50
2019-05-25T20:54:09.058Z,15.50
2019-05-25T20:56:37.459Z,15.40
2019-05-25T20:59:05.898Z,15.40
2019-05-25T21:01:34.349Z,15.30
2019-05-25T21:04:02.759Z,15.30
2019-05-25T21:06:31.216Z,15.30
2019-05-25T21:08:59.622Z,15.30
2019-05-25T21:11:28.056Z,15.20
2019-05-25T21:13:56.595Z,15.20
2019-05-25T21:16:25.010Z,15.10
2019-05-25T21:18:53.442Z,15.10
2019-05-25T21:21:21.904Z,15.00
2019-05-25T21:23:50.330Z,14.90
2019-05-25T21:26:18.749Z,14.90
2019-05-25T21:28:47.192Z,14.80
2019-05-25T21:31:15.622Z,14.70
2019-05-25T21:33:44.056Z,14.80
2019-05-25T21:36:12.509Z,14.80
2019-05-25T21:38:40.921Z,14.80
2019-05-25T21:41:09.346Z,14.70
2019-05-25T21:43:37.791Z,14.80
2019-05-25T21:46:06.231Z,14.80
2019-05-25T21:48:34.642Z,14.70
2019-05-25T21:51:04.798Z,14.70
2019-05-25T21:53:33.223Z,14.70
2019-05-25T21:56:01.651Z,14.60
2019-05-25T21:58:30.094Z,14.60
2019-05-25T22:00:58.586Z,14.60
2019-05-25T22:03:27.085Z,14.60
2019-05-25T22:05:55.531Z,14.60
2019-05-25T22:08:23.943Z,14.60
2019-05-25T22:10:52.362Z,14.70
2019-05-25T22:13:28.377Z,14.60
2019-05-25T22:15:50.907Z,14.60
2019-05-25T22:18:19.312Z,14.60
2019-05-25T22:20:47.789Z,14.60
2019-05-25T22:23:16.211Z,14.60
2019-05-25T22:25:44.633Z,14.60
2019-05-25T22:28:13.081Z,14.50
2019-05-25T22:30:41.514Z,14.60
2019-05-25T22:33:09.941Z,14.50
2019-05-25T22:35:38.396Z,14.50
2019-05-25T22:38:06.809Z,14.40
2019-05-25T22:40:35.250Z,14.50
2019-05-25T22:43:03.703Z,14.50
2019-05-25T22:45:32.127Z,14.50
2019-05-25T22:48:00.541Z,14.50
2019-05-25T22:50:29.013Z,14.50
2019-05-25T22:52:57.440Z,14.50
2019-05-25T22:55:25.856Z,14.50
2019-05-25T22:57:55.237Z,14.50
2019-05-25T23:00:23.927Z,14.40
2019-05-25T23:02:52.764Z,14.40
2019-05-25T23:05:22.591Z,14.40
2019-05-25T23:07:51.009Z,14.40
2019-05-25T23:10:19.449Z,14.30
2019-05-25T23:12:47.900Z,14.30
2019-05-25T23:15:17.191Z,14.30
2019-05-25T23:17:45.623Z,14.30
2019-05-25T23:20:14.079Z,14.30
2019-05-25T23:22:42.518Z,14.20
2019-05-25T23:25:10.932Z,14.30
2019-05-25T23:27:39.393Z,14.20
2019-05-25T23:30:07.906Z,14.20
2019-05-25T23:32:36.329Z,14.30
2019-05-25T23:35:06.118Z,14.30
2019-05-25T23:37:34.539Z,14.30
2019-05-25T23:40:04.228Z,14.30
2019-05-25T23:42:32.674Z,14.20
2019-05-25T23:45:01.096Z,14.20
2019-05-25T23:47:29.519Z,14.00
2019-05-25T23:49:59.741Z,14.00
2019-05-25T23:52:28.065Z,14.00
2019-05-25T23:54:56.479Z,13.80
2019-05-25T23:57:24.943Z,13.80
2019-05-25T23:59:54.665Z,13.80
